createdAt,value
2018-12-19T00:01:29.618Z,11.25
2018-12-19T00:03:00.355Z,11.53
2018-12-19T00:04:30.239Z,13.10
2018-12-19T00:06:00.347Z,11.85
2018-12-19T00:07:30.222Z,11.73
2018-12-19T00:09:03.351Z,11.30
2018-12-19T00:10:33.559Z,12.35
2018-12-19T00:12:03.662Z,11.43
2018-12-19T00:13:33.530Z,12.93
2018-12-19T00:15:24.698Z,11.97
2018-12-19T00:16:54.582Z,12.40
2018-12-19T00:23:19.614Z,12.07
2018-12-19T00:24:49.520Z,15.93
2018-12-19T00:26:19.404Z,13.65
2018-12-19T00:27:49.421Z,13.43
2018-12-19T00:29:19.335Z,14.30
2018-12-19T00:30:49.248Z,13.22
2018-12-19T00:32:19.131Z,12.85
2018-12-19T00:33:49.001Z,11.12
2018-12-19T00:35:18.996Z,11.33
2018-12-19T00:36:48.975Z,15.05
2018-12-19T00:38:18.966Z,15.58
2018-12-19T00:39:48.847Z,18.05
2018-12-19T00:41:18.714Z,15.83
2018-12-19T00:42:48.698Z,12.98
2018-12-19T00:44:18.594Z,13.22
2018-12-19T00:45:48.472Z,12.70
2018-12-19T00:47:18.358Z,11.35
2018-12-19T00:48:48.259Z,13.75
2018-12-19T00:50:18.144Z,11.75
2018-12-19T00:51:48.036Z,12.40
2018-12-19T00:53:17.889Z,13.85
2018-12-19T00:54:47.804Z,10.45
2018-12-19T00:56:17.687Z,11.57
2018-12-19T00:57:47.559Z,11.97
2018-12-19T00:59:17.423Z,13.30
2018-12-19T01:00:47.426Z,11.93
2018-12-19T01:02:17.295Z,11.15
2018-12-19T01:03:47.165Z,12.78
2018-12-19T01:05:17.128Z,12.58
2018-12-19T01:06:59.926Z,13.18
2018-12-19T01:08:29.915Z,12.37
2018-12-19T01:09:59.814Z,11.28
2018-12-19T01:11:29.719Z,14.68
2018-12-19T01:12:59.599Z,13.18
2018-12-19T01:14:29.487Z,11.53
2018-12-19T01:15:59.376Z,12.15
2018-12-19T01:17:29.251Z,13.50
2018-12-19T01:18:59.203Z,11.93
2018-12-19T01:20:29.102Z,11.57
2018-12-19T01:21:58.970Z,11.48
2018-12-19T01:23:28.871Z,12.35
2018-12-19T01:24:58.783Z,11.80
2018-12-19T01:26:28.697Z,11.25
2018-12-19T01:27:58.580Z,12.23
2018-12-19T01:29:28.464Z,13.53
2018-12-19T01:30:58.655Z,13.72
2018-12-19T01:32:28.528Z,12.30
2018-12-19T01:33:59.702Z,11.95
2018-12-19T01:35:29.599Z,11.22
2018-12-19T01:36:59.454Z,12.37
2018-12-19T01:38:29.321Z,14.28
2018-12-19T01:39:59.223Z,10.55
2018-12-19T01:41:29.083Z,12.05
2018-12-19T01:42:58.976Z,12.28
2018-12-19T01:44:28.844Z,11.38
2018-12-19T01:45:59.122Z,11.75
2018-12-19T01:47:29.127Z,10.58
2018-12-19T01:48:59.038Z,12.75
2018-12-19T01:50:28.924Z,12.07
2018-12-19T01:51:58.790Z,12.10
2018-12-19T01:53:28.651Z,11.48
2018-12-19T01:54:58.539Z,10.72
2018-12-19T01:56:29.198Z,11.28
2018-12-19T01:57:59.060Z,12.05
2018-12-19T01:59:28.933Z,10.28
2018-12-19T02:00:59.646Z,8.68
2018-12-19T02:02:30.591Z,13.05
2018-12-19T02:04:00.640Z,13.10
2018-12-19T02:05:30.661Z,10.50
2018-12-19T02:07:00.858Z,12.15
2018-12-19T02:08:30.732Z,11.05
2018-12-19T02:10:00.984Z,11.50
2018-12-19T02:11:30.855Z,12.03
2018-12-19T02:13:00.783Z,13.88
2018-12-19T02:14:32.025Z,13.15
2018-12-19T02:16:10.210Z,14.23
2018-12-19T02:17:40.068Z,13.50
2018-12-19T02:19:10.046Z,12.70
2018-12-19T02:20:39.919Z,11.78
2018-12-19T02:22:09.799Z,10.08
2018-12-19T02:23:40.458Z,12.13
2018-12-19T02:25:10.384Z,13.20
2018-12-19T02:26:40.253Z,9.98
2018-12-19T02:28:10.126Z,10.25
2018-12-19T02:29:39.999Z,10.95
2018-12-19T02:31:09.936Z,9.73
2018-12-19T02:32:39.812Z,11.00
2018-12-19T02:34:09.835Z,11.25
2018-12-19T02:35:39.864Z,11.40
2018-12-19T02:37:09.854Z,9.60
2018-12-19T02:38:39.720Z,10.32
2018-12-19T02:40:09.629Z,12.15
2018-12-19T02:41:39.527Z,11.12
2018-12-19T02:43:09.394Z,11.30
2018-12-19T02:44:47.021Z,9.33
2018-12-19T02:46:16.890Z,9.80
2018-12-19T02:47:46.755Z,12.03
2018-12-19T02:49:16.639Z,10.90
2018-12-19T02:50:46.511Z,12.30
2018-12-19T02:52:16.382Z,10.78
2018-12-19T02:53:46.275Z,11.45
2018-12-19T02:55:16.248Z,9.00
2018-12-19T02:56:46.115Z,11.40
2018-12-19T02:58:16.102Z,9.90
2018-12-19T02:59:45.989Z,10.28
2018-12-19T03:01:15.865Z,10.38
2018-12-19T03:02:45.735Z,11.90
2018-12-19T03:04:15.717Z,11.53
2018-12-19T03:05:45.613Z,11.20
2018-12-19T03:07:15.702Z,9.18
2018-12-19T03:08:59.287Z,11.80
2018-12-19T03:10:29.173Z,10.00
2018-12-19T03:11:59.166Z,12.33
2018-12-19T03:13:29.775Z,12.90
2018-12-19T03:14:59.660Z,11.53
2018-12-19T03:16:29.710Z,12.43
2018-12-19T03:17:59.581Z,10.58
2018-12-19T03:19:29.467Z,10.05
2018-12-19T03:20:59.337Z,13.08
2018-12-19T03:22:29.199Z,10.75
2018-12-19T03:23:59.067Z,10.30
2018-12-19T03:25:28.951Z,10.63
2018-12-19T03:26:58.831Z,10.03
2018-12-19T03:28:28.695Z,10.38
2018-12-19T03:29:58.587Z,11.80
2018-12-19T03:31:28.468Z,9.33
2018-12-19T03:32:58.355Z,9.50
2018-12-19T03:34:28.333Z,10.18
2018-12-19T03:35:58.319Z,12.18
2018-12-19T03:37:28.322Z,10.45
2018-12-19T03:38:58.193Z,9.33
2018-12-19T03:40:28.313Z,9.33
2018-12-19T03:41:58.397Z,12.00
2018-12-19T03:43:28.495Z,10.20
2018-12-19T03:44:58.360Z,8.88
2018-12-19T03:46:28.247Z,8.88
2018-12-19T03:47:58.114Z,10.25
2018-12-19T03:49:28.099Z,8.93
2018-12-19T03:50:58.089Z,8.60
2018-12-19T03:52:27.977Z,10.05
2018-12-19T03:53:57.834Z,9.18
2018-12-19T03:55:27.710Z,9.90
2018-12-19T03:56:57.598Z,10.03
2018-12-19T03:58:27.458Z,11.08
2018-12-19T04:00:10.283Z,9.95
2018-12-19T04:01:40.156Z,8.90
2018-12-19T04:03:10.017Z,8.78
2018-12-19T04:04:40.100Z,9.48
2018-12-19T04:06:09.968Z,9.20
2018-12-19T04:07:39.861Z,10.93
2018-12-19T04:09:09.739Z,12.35
2018-12-19T04:10:48.499Z,16.60
2018-12-19T04:12:18.407Z,15.05
2018-12-19T04:13:48.273Z,12.35
2018-12-19T04:15:18.147Z,10.93
2018-12-19T04:16:48.140Z,10.40
2018-12-19T04:18:18.031Z,12.07
2018-12-19T04:19:47.894Z,9.65
2018-12-19T04:21:17.811Z,8.05
2018-12-19T04:22:47.798Z,12.80
2018-12-19T04:24:17.670Z,18.50
2018-12-19T04:25:47.584Z,8.75
2018-12-19T04:27:17.544Z,8.43
2018-12-19T04:28:47.528Z,21.55
2018-12-19T04:30:17.408Z,13.48
2018-12-19T04:31:47.283Z,8.63
2018-12-19T04:33:17.264Z,11.35
2018-12-19T04:34:47.163Z,13.93
2018-12-19T04:36:17.182Z,11.00
2018-12-19T04:37:47.053Z,13.78
2018-12-19T04:39:16.930Z,28.35
2018-12-19T04:40:46.920Z,12.75
2018-12-19T04:42:16.786Z,10.95
2018-12-19T04:43:46.683Z,12.58
2018-12-19T04:45:16.693Z,12.75
2018-12-19T04:46:46.698Z,26.52
2018-12-19T04:48:16.555Z,10.48
2018-12-19T04:49:46.462Z,12.60
2018-12-19T04:51:16.435Z,9.23
2018-12-19T04:53:10.250Z,9.13
2018-12-19T04:54:40.131Z,10.80
2018-12-19T04:56:10.303Z,10.50
2018-12-19T04:57:40.172Z,8.08
2018-12-19T04:59:10.031Z,10.98
2018-12-19T05:00:39.914Z,9.83
2018-12-19T05:02:09.783Z,10.93
2018-12-19T05:03:52.772Z,8.85
2018-12-19T05:05:22.767Z,10.82
2018-12-19T05:06:52.661Z,9.35
2018-12-19T05:08:22.540Z,9.08
2018-12-19T05:10:26.844Z,19.85
2018-12-19T05:11:56.844Z,9.08
2018-12-19T05:13:41.252Z,11.63
2018-12-19T05:15:11.262Z,10.55
2018-12-19T05:16:41.139Z,11.55
2018-12-19T05:18:11.122Z,10.08
2018-12-19T05:19:41.360Z,12.45
2018-12-19T05:21:25.183Z,10.58
2018-12-19T05:23:03.195Z,10.28
2018-12-19T05:24:33.068Z,9.48
2018-12-19T05:26:03.186Z,10.90
2018-12-19T05:27:33.050Z,9.73
2018-12-19T05:29:03.044Z,12.10
2018-12-19T05:30:33.071Z,13.38
2018-12-19T05:32:03.187Z,11.68
2018-12-19T05:33:33.058Z,13.62
2018-12-19T05:35:03.531Z,11.00
2018-12-19T05:36:33.415Z,13.93
2018-12-19T05:38:03.294Z,12.33
2018-12-19T05:39:33.159Z,13.22
2018-12-19T05:41:03.033Z,11.75
2018-12-19T05:42:33.010Z,14.03
2018-12-19T05:44:03.015Z,13.45
2018-12-19T05:45:32.873Z,14.07
2018-12-19T05:47:02.867Z,11.83
2018-12-19T05:48:32.773Z,11.95
2018-12-19T05:50:03.439Z,13.35
2018-12-19T05:51:33.439Z,13.45
2018-12-19T05:53:03.317Z,11.78
2018-12-19T05:54:33.322Z,13.68
2018-12-19T05:56:03.323Z,15.18
2018-12-19T05:57:33.323Z,13.18
2018-12-19T05:59:03.323Z,13.05
2018-12-19T06:00:33.597Z,21.40
2018-12-19T06:02:03.817Z,21.93
2018-12-19T06:03:33.684Z,21.52
2018-12-19T06:05:04.638Z,25.25
2018-12-19T06:06:34.529Z,41.40
2018-12-19T06:08:04.514Z,44.30
2018-12-19T06:09:44.878Z,49.93
2018-12-19T06:11:14.746Z,16.02
2018-12-19T06:12:44.619Z,18.17
2018-12-19T06:14:14.493Z,18.52
2018-12-19T06:15:44.512Z,18.77
2018-12-19T06:17:14.395Z,16.85
2018-12-19T06:18:44.386Z,15.20
2018-12-19T06:20:14.267Z,16.95
2018-12-19T06:21:44.158Z,18.27
2018-12-19T06:23:14.030Z,15.20
2018-12-19T06:24:43.897Z,16.85
2018-12-19T06:26:13.777Z,16.10
2018-12-19T06:27:43.748Z,16.00
2018-12-19T06:29:24.017Z,13.72
2018-12-19T06:33:18.425Z,16.77
2018-12-19T06:34:48.288Z,12.40
2018-12-19T06:36:18.231Z,14.93
2018-12-19T06:37:48.118Z,15.20
2018-12-19T06:39:18.103Z,17.35
2018-12-19T06:40:47.990Z,16.97
2018-12-19T06:42:17.994Z,14.20
2018-12-19T06:43:47.860Z,15.55
2018-12-19T06:45:17.740Z,15.45
2018-12-19T06:46:47.625Z,15.83
2018-12-19T06:48:17.554Z,14.50
2018-12-19T06:49:47.421Z,17.73
2018-12-19T06:51:18.930Z,15.13
2018-12-19T06:52:49.050Z,17.48
2018-12-19T06:54:19.018Z,15.60
2018-12-19T06:55:48.988Z,15.88
2018-12-19T06:57:59.933Z,14.83
2018-12-19T06:59:45.159Z,17.85
2018-12-19T07:01:15.030Z,17.07
2018-12-19T07:02:45.018Z,17.98
2018-12-19T07:04:15.004Z,17.45
2018-12-19T07:05:44.993Z,14.95
2018-12-19T07:07:14.875Z,14.55
2018-12-19T07:08:44.741Z,15.48
2018-12-19T07:11:03.924Z,12.47
2018-12-19T07:12:33.799Z,11.35
2018-12-19T07:14:03.803Z,14.13
2018-12-19T07:15:33.803Z,12.70
2018-12-19T07:19:49.051Z,13.10
2018-12-19T07:21:18.922Z,12.80
2018-12-19T07:22:48.824Z,13.40
2018-12-19T07:24:18.885Z,13.65
2018-12-19T07:27:17.166Z,17.87
2018-12-19T07:28:47.155Z,18.98
2018-12-19T07:30:17.032Z,17.10
2018-12-19T07:31:46.923Z,20.20
2018-12-19T07:33:16.800Z,17.30
2018-12-19T07:34:46.816Z,20.55
2018-12-19T07:36:16.835Z,25.95
2018-12-19T07:37:46.823Z,33.35
2018-12-19T07:39:17.236Z,29.63
2018-12-19T07:40:47.197Z,27.90
2018-12-19T07:42:17.216Z,24.98
2018-12-19T07:43:47.191Z,18.15
2018-12-19T07:45:17.262Z,17.15
2018-12-19T07:46:47.265Z,18.23
2018-12-19T07:48:17.604Z,12.35
2018-12-19T07:49:47.564Z,14.43
2018-12-19T07:51:17.630Z,29.42
2018-12-19T07:52:47.959Z,15.93
2018-12-19T07:54:17.887Z,12.58
2018-12-19T07:55:48.084Z,8.23
2018-12-19T07:57:18.073Z,14.75
2018-12-19T07:58:48.019Z,12.60
2018-12-19T08:00:18.001Z,11.48
2018-12-19T08:01:47.987Z,18.35
2018-12-19T08:03:17.947Z,13.15
2018-12-19T08:04:48.110Z,16.23
2018-12-19T08:06:18.091Z,13.30
2018-12-19T08:07:48.037Z,9.73
2018-12-19T08:09:17.971Z,8.53
2018-12-19T08:10:52.145Z,10.60
2018-12-19T08:12:19.944Z,10.48
2018-12-19T08:13:49.932Z,16.93
2018-12-19T08:15:19.887Z,11.55
2018-12-19T08:16:49.976Z,13.98
2018-12-19T08:18:19.922Z,12.00
2018-12-19T08:19:49.896Z,12.60
2018-12-19T08:21:19.993Z,15.30
2018-12-19T08:22:49.964Z,16.87
2018-12-19T08:24:19.953Z,13.00
2018-12-19T08:25:49.883Z,16.17
2018-12-19T08:27:26.814Z,14.23
2018-12-19T08:28:56.902Z,13.45
2018-12-19T08:30:26.843Z,14.93
2018-12-19T08:31:56.923Z,16.80
2018-12-19T08:33:26.881Z,15.90
2018-12-19T08:35:15.739Z,16.57
2018-12-19T08:36:45.692Z,14.90
2018-12-19T08:38:15.621Z,18.10
2018-12-19T08:39:45.547Z,17.65
2018-12-19T08:41:15.532Z,17.07
2018-12-19T08:42:45.509Z,18.90
2018-12-19T08:44:15.510Z,21.10
2018-12-19T08:45:45.864Z,18.62
2018-12-19T08:47:15.828Z,20.40
2018-12-19T08:48:45.782Z,20.20
2018-12-19T08:50:15.811Z,20.17
2018-12-19T08:51:45.924Z,21.07
2018-12-19T08:53:15.860Z,16.95
2018-12-19T08:54:45.763Z,19.90
2018-12-19T08:56:15.688Z,21.95
2018-12-19T08:57:58.872Z,20.27
2018-12-19T08:59:28.877Z,24.85
2018-12-19T09:00:58.839Z,20.17
2018-12-19T09:02:28.914Z,19.37
2018-12-19T09:03:58.860Z,19.65
2018-12-19T09:05:28.952Z,21.97
2018-12-19T09:06:58.898Z,21.27
2018-12-19T09:08:28.919Z,22.60
2018-12-19T09:09:58.820Z,22.22
2018-12-19T09:11:28.795Z,21.42
2018-12-19T09:12:58.746Z,23.77
2018-12-19T09:14:28.677Z,22.58
2018-12-19T09:16:05.275Z,22.35
2018-12-19T09:17:35.866Z,22.17
2018-12-19T09:19:20.743Z,23.42
2018-12-19T09:20:50.825Z,24.65
2018-12-19T09:22:21.684Z,20.70
2018-12-19T09:23:51.688Z,24.77
2018-12-19T09:25:21.776Z,25.10
2018-12-19T09:26:51.721Z,24.30
2018-12-19T09:28:21.761Z,24.90
2018-12-19T09:29:51.672Z,24.92
2018-12-19T09:31:21.787Z,22.75
2018-12-19T09:32:52.670Z,24.60
2018-12-19T09:34:22.884Z,25.23
2018-12-19T09:35:52.855Z,25.12
2018-12-19T09:37:22.889Z,28.40
2018-12-19T09:38:53.008Z,30.15
2018-12-19T09:40:22.935Z,26.23
2018-12-19T09:41:52.980Z,28.73
2018-12-19T09:43:22.927Z,27.35
2018-12-19T09:44:52.883Z,23.50
2018-12-19T09:46:22.832Z,29.25
2018-12-19T09:47:52.812Z,27.73
2018-12-19T09:49:22.773Z,27.48
2018-12-19T09:51:00.914Z,26.68
2018-12-19T09:52:31.075Z,24.92
2018-12-19T09:54:01.133Z,23.30
2018-12-19T09:55:31.072Z,24.75
2018-12-19T09:57:01.024Z,26.82
2018-12-19T09:58:31.119Z,25.35
2018-12-19T10:00:01.035Z,25.55
2018-12-19T10:01:30.949Z,24.85
2018-12-19T10:03:01.001Z,24.60
2018-12-19T10:04:30.972Z,25.48
2018-12-19T10:06:00.847Z,32.28
2018-12-19T10:07:34.075Z,27.42
2018-12-19T10:09:07.668Z,27.87
2018-12-19T10:10:38.567Z,26.45
2018-12-19T10:12:08.483Z,22.60
2018-12-19T10:13:38.352Z,27.58
2018-12-19T10:15:08.239Z,22.50
2018-12-19T10:16:38.123Z,26.55
2018-12-19T10:18:08.032Z,24.32
2018-12-19T10:19:37.951Z,23.62
2018-12-19T10:21:07.971Z,20.85
2018-12-19T10:22:38.007Z,21.93
2018-12-19T10:24:07.896Z,55.78
2018-12-19T10:25:37.762Z,54.95
2018-12-19T10:27:07.670Z,39.98
2018-12-19T10:28:37.636Z,23.32
2018-12-19T10:30:09.751Z,19.55
2018-12-19T10:31:39.690Z,22.45
2018-12-19T10:33:09.842Z,23.70
2018-12-19T10:34:42.722Z,22.17
2018-12-19T10:36:12.744Z,23.38
2018-12-19T10:37:42.847Z,23.32
2018-12-19T10:39:16.167Z,22.55
2018-12-19T10:40:46.067Z,23.65
2018-12-19T10:42:16.059Z,22.30
2018-12-19T10:43:46.027Z,21.97
2018-12-19T10:45:16.050Z,23.07
2018-12-19T10:46:46.287Z,23.57
2018-12-19T10:48:16.242Z,25.35
2018-12-19T10:49:46.326Z,24.12
2018-12-19T10:51:16.371Z,37.05
2018-12-19T10:52:46.464Z,26.07
2018-12-19T10:54:16.878Z,25.27
2018-12-19T10:55:46.868Z,27.22
2018-12-19T10:57:16.845Z,25.57
2018-12-19T10:58:46.961Z,31.23
2018-12-19T11:00:23.020Z,26.93
2018-12-19T11:01:53.054Z,26.00
2018-12-19T11:03:23.151Z,26.42
2018-12-19T11:04:54.316Z,31.33
2018-12-19T11:06:24.621Z,26.05
2018-12-19T11:07:54.974Z,28.35
2018-12-19T11:09:25.086Z,27.17
2018-12-19T11:10:55.378Z,27.58
2018-12-19T11:12:25.572Z,26.68
2018-12-19T11:13:55.693Z,29.95
2018-12-19T11:15:25.765Z,29.57
2018-12-19T11:16:56.142Z,29.63
2018-12-19T11:18:26.741Z,28.80
2018-12-19T11:19:57.230Z,33.45
2018-12-19T11:21:27.355Z,30.77
2018-12-19T11:22:57.874Z,33.25
2018-12-19T11:24:28.121Z,35.75
2018-12-19T11:25:58.251Z,31.55
2018-12-19T11:27:28.505Z,34.90
2018-12-19T11:28:58.952Z,31.57
2018-12-19T11:30:29.168Z,32.55
2018-12-19T11:31:59.307Z,34.35
2018-12-19T11:33:29.763Z,30.92
2018-12-19T11:34:59.936Z,29.98
2018-12-19T11:36:30.026Z,31.40
2018-12-19T11:38:00.087Z,29.18
2018-12-19T11:39:30.090Z,27.85
2018-12-19T11:41:00.053Z,30.35
2018-12-19T11:42:30.086Z,31.90
2018-12-19T11:44:00.084Z,29.98
2018-12-19T11:45:30.031Z,31.62
2018-12-19T11:47:00.035Z,30.48
2018-12-19T11:48:30.040Z,28.45
2018-12-19T11:50:00.061Z,28.87
2018-12-19T11:51:30.100Z,30.12
2018-12-19T11:53:00.076Z,29.82
2018-12-19T11:54:30.008Z,28.92
2018-12-19T11:56:00.051Z,28.77
2018-12-19T11:57:30.203Z,29.15
2018-12-19T11:59:00.254Z,31.52
2018-12-19T12:00:30.435Z,30.23
2018-12-19T12:02:00.637Z,30.48
2018-12-19T12:03:30.910Z,31.95
2018-12-19T12:06:56.759Z,33.08
2018-12-19T12:08:26.848Z,28.83
2018-12-19T12:10:20.497Z,30.50
2018-12-19T12:11:50.581Z,32.88
2018-12-19T12:13:21.080Z,31.40
2018-12-19T12:14:51.185Z,30.23
2018-12-19T12:16:21.451Z,31.90
2018-12-19T12:17:51.556Z,50.95
2018-12-19T12:19:21.740Z,40.65
2018-12-19T12:20:51.867Z,29.55
2018-12-19T12:22:22.641Z,34.80
2018-12-19T12:23:53.154Z,33.95
2018-12-19T12:25:23.254Z,29.85
2018-12-19T12:26:53.941Z,32.10
2018-12-19T12:28:24.089Z,30.52
2018-12-19T12:29:54.644Z,28.32
2018-12-19T12:31:24.783Z,27.17
2018-12-19T12:32:55.479Z,26.80
2018-12-19T12:34:25.587Z,28.27
2018-12-19T12:35:55.943Z,28.30
2018-12-19T12:37:26.036Z,26.95
2018-12-19T12:38:56.300Z,31.68
2018-12-19T12:40:26.372Z,30.40
2018-12-19T12:41:56.600Z,26.97
2018-12-19T12:43:26.779Z,26.87
2018-12-19T12:44:57.106Z,27.25
2018-12-19T12:46:27.607Z,53.42
2018-12-19T12:47:57.726Z,33.48
2018-12-19T12:49:27.847Z,23.95
2018-12-19T12:50:58.190Z,28.75
2018-12-19T12:52:28.259Z,26.45
2018-12-19T12:53:58.307Z,27.30
2018-12-19T12:55:28.384Z,27.62
2018-12-19T12:56:58.657Z,26.90
2018-12-19T12:58:28.747Z,25.92
2018-12-19T12:59:58.982Z,25.35
2018-12-19T13:01:29.007Z,29.40
2018-12-19T13:02:59.100Z,27.85
2018-12-19T13:04:29.106Z,25.17
2018-12-19T13:05:59.314Z,25.70
2018-12-19T13:07:29.495Z,27.30
2018-12-19T13:08:59.821Z,28.25
2018-12-19T13:10:36.125Z,27.48
2018-12-19T13:12:02.115Z,25.35
2018-12-19T13:13:32.178Z,32.05
2018-12-19T13:15:02.486Z,25.88
2018-12-19T13:16:32.747Z,26.77
2018-12-19T13:18:03.071Z,28.10
2018-12-19T13:21:29.659Z,29.18
2018-12-19T13:24:55.231Z,68.07
2018-12-19T13:26:25.270Z,32.23
2018-12-19T13:27:55.542Z,72.22
2018-12-19T13:29:25.970Z,347.88
2018-12-19T13:30:56.246Z,90.92
2018-12-19T13:32:26.643Z,37.67
2018-12-19T13:33:56.759Z,78.15
2018-12-19T13:35:26.851Z,38.17
2018-12-19T13:36:57.006Z,41.45
2018-12-19T13:38:27.014Z,52.53
2018-12-19T13:39:57.052Z,47.27
2018-12-19T13:41:27.170Z,35.80
2018-12-19T13:42:57.144Z,31.75
2018-12-19T13:44:27.114Z,32.73
2018-12-19T13:45:57.200Z,36.45
2018-12-19T13:47:27.230Z,33.53
2018-12-19T13:48:57.293Z,55.78
2018-12-19T13:50:27.382Z,46.18
2018-12-19T13:51:58.073Z,35.08
2018-12-19T13:53:28.160Z,32.03
2018-12-19T13:54:58.332Z,35.48
2018-12-19T13:56:28.353Z,33.05
2018-12-19T13:57:58.356Z,30.20
2018-12-19T13:59:28.410Z,26.82
2018-12-19T14:00:58.478Z,29.80
2018-12-19T14:02:28.576Z,28.98
2018-12-19T14:03:58.572Z,32.40
2018-12-19T14:05:36.721Z,31.35
2018-12-19T14:07:07.506Z,28.65
2018-12-19T14:10:33.536Z,36.28
2018-12-19T14:12:03.997Z,60.17
2018-12-19T14:13:34.449Z,31.15
2018-12-19T14:15:05.558Z,30.77
2018-12-19T14:16:35.668Z,42.03
2018-12-19T14:18:05.991Z,31.62
2018-12-19T14:19:36.523Z,28.98
2018-12-19T14:21:06.766Z,92.35
2018-12-19T14:22:37.202Z,29.65
2018-12-19T14:24:07.303Z,29.40
2018-12-19T14:25:37.689Z,70.75
2018-12-19T14:27:07.927Z,61.45
2018-12-19T14:28:37.966Z,44.93
2018-12-19T14:30:08.880Z,51.40
2018-12-19T14:31:39.381Z,34.20
2018-12-19T14:33:09.499Z,34.08
2018-12-19T14:34:40.357Z,33.05
2018-12-19T14:36:10.348Z,31.17
2018-12-19T14:37:40.322Z,27.42
2018-12-19T14:39:10.595Z,31.45
2018-12-19T14:41:00.360Z,53.55
2018-12-19T14:42:30.720Z,29.80
2018-12-19T14:44:00.848Z,29.32
2018-12-19T14:45:31.019Z,34.65
2018-12-19T14:47:01.286Z,36.23
2018-12-19T14:48:31.455Z,70.87
2018-12-19T14:50:01.584Z,36.77
2018-12-19T14:51:32.314Z,30.17
2018-12-19T14:53:02.786Z,79.30
2018-12-19T14:54:32.946Z,40.92
2018-12-19T14:56:03.060Z,49.88
2018-12-19T14:57:33.097Z,36.93
2018-12-19T14:59:03.333Z,35.65
2018-12-19T15:00:33.775Z,41.25
2018-12-19T15:02:04.404Z,48.08
2018-12-19T15:03:34.369Z,34.75
2018-12-19T15:05:04.588Z,43.25
2018-12-19T15:06:34.623Z,168.75
2018-12-19T15:08:04.905Z,95.92
2018-12-19T15:09:35.008Z,43.95
2018-12-19T15:11:05.225Z,34.50
2018-12-19T15:12:35.347Z,34.98
2018-12-19T15:14:05.669Z,36.70
2018-12-19T15:15:35.917Z,44.27
2018-12-19T15:17:06.192Z,36.13
2018-12-19T15:18:36.216Z,87.97
2018-12-19T15:20:06.716Z,55.45
2018-12-19T15:21:37.469Z,37.90
2018-12-19T15:23:07.427Z,51.13
2018-12-19T15:24:37.460Z,118.57
2018-12-19T15:26:07.453Z,104.15
2018-12-19T15:27:37.452Z,37.17
2018-12-19T15:29:07.782Z,32.78
2018-12-19T15:30:37.797Z,97.80
2018-12-19T15:32:07.789Z,36.73
2018-12-19T15:33:37.745Z,33.10
2018-12-19T15:35:07.935Z,33.53
2018-12-19T15:36:38.179Z,27.70
2018-12-19T15:38:08.099Z,33.35
2018-12-19T15:39:38.084Z,32.98
2018-12-19T15:41:08.133Z,33.92
2018-12-19T15:42:38.109Z,54.58
2018-12-19T15:44:08.089Z,33.78
2018-12-19T15:45:38.143Z,40.98
2018-12-19T15:47:08.116Z,57.55
2018-12-19T15:48:38.057Z,72.37
2018-12-19T15:50:08.243Z,63.68
2018-12-19T15:51:38.260Z,66.05
2018-12-19T15:53:08.199Z,53.13
2018-12-19T15:54:38.291Z,45.95
2018-12-19T15:56:08.363Z,47.62
2018-12-19T15:57:38.405Z,52.08
2018-12-19T15:59:08.390Z,47.27
2018-12-19T16:00:38.361Z,51.53
2018-12-19T16:02:08.323Z,53.73
2018-12-19T16:03:38.292Z,59.58
2018-12-19T16:05:08.335Z,57.67
2018-12-19T16:06:38.276Z,57.58
2018-12-19T16:08:08.376Z,373.70
2018-12-19T16:09:38.477Z,74.03
2018-12-19T16:11:08.408Z,53.48
2018-12-19T16:12:41.879Z,47.00
2018-12-19T16:14:11.876Z,51.85
2018-12-19T16:15:41.838Z,43.68
2018-12-19T16:17:11.812Z,39.20
2018-12-19T16:18:41.852Z,40.17
2018-12-19T16:20:11.836Z,34.30
2018-12-19T16:21:41.798Z,33.25
2018-12-19T16:23:11.728Z,31.20
2018-12-19T16:24:41.735Z,34.90
2018-12-19T16:26:17.642Z,29.52
2018-12-19T16:27:47.561Z,28.30
2018-12-19T16:29:17.540Z,32.13
2018-12-19T16:30:47.520Z,38.45
2018-12-19T16:32:17.492Z,34.20
2018-12-19T16:33:47.556Z,36.77
2018-12-19T16:35:17.547Z,45.70
2018-12-19T16:36:47.486Z,35.63
2018-12-19T16:38:18.352Z,33.48
2018-12-19T16:39:48.570Z,49.95
2018-12-19T16:41:18.467Z,34.45
2018-12-19T16:42:48.363Z,35.48
2018-12-19T16:44:18.278Z,31.73
2018-12-19T16:45:48.283Z,34.25
2018-12-19T16:47:18.163Z,29.67
2018-12-19T16:48:48.482Z,36.23
2018-12-19T16:50:18.433Z,36.93
2018-12-19T16:51:48.432Z,48.35
2018-12-19T16:53:18.450Z,36.30
2018-12-19T16:54:48.379Z,40.17
2018-12-19T16:56:18.371Z,33.83
2018-12-19T16:57:48.675Z,36.60
2018-12-19T16:59:18.613Z,49.30
2018-12-19T17:00:48.505Z,33.15
2018-12-19T17:02:18.400Z,27.45
2018-12-19T17:03:48.295Z,44.67
2018-12-19T17:05:18.552Z,77.27
2018-12-19T17:06:48.568Z,70.25
2018-12-19T17:08:18.450Z,54.45
2018-12-19T17:09:48.357Z,64.27
2018-12-19T17:11:18.259Z,59.83
2018-12-19T17:12:52.766Z,68.07
2018-12-19T17:14:20.347Z,140.68
2018-12-19T17:15:50.388Z,85.87
2018-12-19T17:17:20.355Z,65.97
2018-12-19T17:18:50.420Z,70.67
2018-12-19T17:20:20.448Z,64.05
2018-12-19T17:21:50.442Z,67.22
2018-12-19T17:23:20.493Z,59.98
2018-12-19T17:24:50.493Z,49.58
2018-12-19T17:26:20.383Z,44.80
2018-12-19T17:27:50.412Z,48.73
2018-12-19T17:29:20.414Z,41.28
2018-12-19T17:30:50.329Z,37.85
2018-12-19T17:32:20.355Z,39.08
2018-12-19T17:33:50.328Z,29.82
2018-12-19T17:35:20.749Z,29.25
2018-12-19T17:36:50.944Z,41.73
2018-12-19T17:38:20.902Z,43.52
2018-12-19T17:39:50.898Z,48.83
2018-12-19T17:41:20.898Z,50.05
2018-12-19T17:42:51.285Z,41.00
2018-12-19T17:44:21.341Z,68.30
2018-12-19T17:45:51.436Z,41.68
2018-12-19T17:47:21.477Z,50.60
2018-12-19T17:48:51.571Z,129.90
2018-12-19T17:50:21.520Z,96.47
2018-12-19T17:51:51.808Z,61.45
2018-12-19T17:53:21.797Z,68.00
2018-12-19T17:54:51.775Z,57.17
2018-12-19T17:56:27.947Z,58.13
2018-12-19T17:57:57.869Z,69.05
2018-12-19T17:59:28.025Z,56.50
2018-12-19T18:00:57.975Z,65.97
2018-12-19T18:02:27.887Z,71.67
2018-12-19T18:03:57.891Z,54.53
2018-12-19T18:05:28.029Z,59.75
2018-12-19T18:06:57.960Z,51.73
2018-12-19T18:08:29.154Z,78.92
2018-12-19T18:09:59.575Z,50.85
2018-12-19T18:11:29.534Z,64.97
2018-12-19T18:13:05.976Z,89.75
2018-12-19T18:14:31.583Z,93.07
2018-12-19T18:16:01.640Z,131.12
2018-12-19T18:17:31.593Z,147.35
2018-12-19T18:19:01.624Z,242.00
2018-12-19T18:20:31.531Z,253.20
2018-12-19T18:22:01.643Z,258.45
2018-12-19T18:23:31.767Z,114.57
2018-12-19T18:25:01.786Z,82.67
2018-12-19T18:26:31.821Z,66.28
2018-12-19T18:28:01.739Z,56.08
2018-12-19T18:29:31.721Z,52.33
2018-12-19T18:31:02.176Z,68.57
2018-12-19T18:32:32.129Z,68.28
2018-12-19T18:34:02.093Z,68.67
2018-12-19T18:35:32.098Z,53.78
2018-12-19T18:37:02.292Z,119.02
2018-12-19T18:38:32.324Z,152.38
2018-12-19T18:40:02.495Z,126.02
2018-12-19T18:41:32.386Z,103.02
2018-12-19T18:43:02.468Z,118.85
2018-12-19T18:44:32.595Z,123.53
2018-12-19T18:46:03.573Z,118.82
2018-12-19T18:47:33.495Z,92.65
2018-12-19T18:49:04.046Z,127.42
2018-12-19T18:50:34.080Z,65.28
2018-12-19T18:52:03.992Z,72.72
2018-12-19T18:53:33.897Z,63.75
2018-12-19T18:55:04.592Z,97.25
2018-12-19T18:56:34.524Z,74.37
2018-12-19T18:58:10.439Z,84.40
2018-12-19T18:59:40.591Z,74.37
2018-12-19T19:01:10.524Z,80.28
2018-12-19T19:02:41.119Z,52.93
2018-12-19T19:04:11.111Z,74.37
2018-12-19T19:05:41.297Z,63.40
2018-12-19T19:07:11.801Z,65.40
2018-12-19T19:08:41.799Z,45.30
2018-12-19T19:10:14.157Z,79.15
2018-12-19T19:11:44.063Z,73.10
2018-12-19T19:13:19.626Z,53.30
2018-12-19T19:14:46.012Z,62.38
2018-12-19T19:16:16.059Z,75.22
2018-12-19T19:17:46.183Z,155.43
2018-12-19T19:19:16.096Z,143.30
2018-12-19T19:20:46.202Z,135.43
2018-12-19T19:22:16.116Z,86.32
2018-12-19T19:23:46.018Z,90.65
2018-12-19T19:25:16.119Z,60.15
2018-12-19T19:26:46.069Z,85.92
2018-12-19T19:28:15.968Z,75.30
2018-12-19T19:29:45.928Z,133.85
2018-12-19T19:31:15.810Z,144.70
2018-12-19T19:32:45.838Z,88.07
2018-12-19T19:34:16.748Z,66.02
2018-12-19T19:35:47.070Z,125.10
2018-12-19T19:37:17.091Z,64.15
2018-12-19T19:38:47.124Z,55.20
2018-12-19T19:40:17.065Z,38.73
2018-12-19T19:41:47.969Z,34.03
2018-12-19T19:43:17.875Z,32.53
2018-12-19T19:44:47.902Z,38.02
2018-12-19T19:46:18.023Z,26.10
2018-12-19T19:47:47.969Z,44.35
2018-12-19T19:49:17.874Z,45.85